sensor_id;sensor_type;location;lat;lon;timestamp;temperature;humidity
15083;DHT22;7640;53.116;6.878;2022-07-29T00:01:41;16.90;99.90
15083;DHT22;7640;53.116;6.878;2022-07-29T00:04:10;16.90;99.90
15083;DHT22;7640;53.116;6.878;2022-07-29T00:06:41;16.90;99.90
15083;DHT22;7640;53.116;6.878;2022-07-29T00:09:09;16.90;99.90
15083;DHT22;7640;53.116;6.878;2022-07-29T00:11:42;16.90;99.90
15083;DHT22;7640;53.116;6.878;2022-07-29T00:14:10;16.90;99.90
15083;DHT22;7640;53.116;6.878;2022-07-29T00:16:39;16.90;99.90
15083;DHT22;7640;53.116;6.878;2022-07-29T00:19:07;16.90;99.90
15083;DHT22;7640;53.116;6.878;2022-07-29T00:21:36;16.90;99.90
15083;DHT22;7640;53.116;6.878;2022-07-29T00:24:06;17.00;99.90
15083;DHT22;7640;53.116;6.878;2022-07-29T00:26:35;17.00;99.90
15083;DHT22;7640;53.116;6.878;2022-07-29T00:29:04;17.00;99.90
15083;DHT22;7640;53.116;6.878;2022-07-29T00:31:52;17.00;99.90
15083;DHT22;7640;53.116;6.878;2022-07-29T00:34:21;17.00;99.90
15083;DHT22;7640;53.116;6.878;2022-07-29T00:37:06;17.00;99.90
15083;DHT22;7640;53.116;6.878;2022-07-29T00:39:36;17.00;99.90
15083;DHT22;7640;53.116;6.878;2022-07-29T00:42:05;17.00;99.90
15083;DHT22;7640;53.116;6.878;2022-07-29T00:44:36;17.00;99.90
15083;DHT22;7640;53.116;6.878;2022-07-29T00:47:06;17.00;99.90
15083;DHT22;7640;53.116;6.878;2022-07-29T00:49:35;17.00;99.90
15083;DHT22;7640;53.116;6.878;2022-07-29T00:52:05;17.00;99.90
15083;DHT22;7640;53.116;6.878;2022-07-29T00:54:39;17.00;99.90
15083;DHT22;7640;53.116;6.878;2022-07-29T00:57:10;17.00;99.90
15083;DHT22;7640;53.116;6.878;2022-07-29T00:59:39;17.00;99.90
15083;DHT22;7640;53.116;6.878;2022-07-29T01:02:07;17.00;99.90
15083;DHT22;7640;53.116;6.878;2022-07-29T01:04:35;17.00;99.90
15083;DHT22;7640;53.116;6.878;2022-07-29T01:07:04;17.00;99.90
15083;DHT22;7640;53.116;6.878;2022-07-29T01:09:33;17.00;99.90
15083;DHT22;7640;53.116;6.878;2022-07-29T01:12:16;17.00;99.90
15083;DHT22;7640;53.116;6.878;2022-07-29T01:14:47;16.90;99.90
15083;DHT22;7640;53.116;6.878;2022-07-29T01:17:21;16.90;99.90
15083;DHT22;7640;53.116;6.878;2022-07-29T01:19:58;16.90;99.90
15083;DHT22;7640;53.116;6.878;2022-07-29T01:22:42;16.90;99.90
15083;DHT22;7640;53.116;6.878;2022-07-29T01:25:46;16.90;99.90
15083;DHT22;7640;53.116;6.878;2022-07-29T01:28:49;16.90;99.90
15083;DHT22;7640;53.116;6.878;2022-07-29T01:31:28;16.80;99.90
15083;DHT22;7640;53.116;6.878;2022-07-29T01:34:05;16.80;99.90
15083;DHT22;7640;53.116;6.878;2022-07-29T01:36:43;16.80;99.90
15083;DHT22;7640;53.116;6.878;2022-07-29T01:39:19;16.80;99.90
15083;DHT22;7640;53.116;6.878;2022-07-29T01:41:56;16.80;99.90
15083;DHT22;7640;53.116;6.878;2022-07-29T01:44:32;16.80;99.90
15083;DHT22;7640;53.116;6.878;2022-07-29T01:47:10;16.80;99.90
15083;DHT22;7640;53.116;6.878;2022-07-29T01:49:45;16.80;99.90
15083;DHT22;7640;53.116;6.878;2022-07-29T01:52:21;16.80;99.90
15083;DHT22;7640;53.116;6.878;2022-07-29T01:54:55;16.80;99.90
15083;DHT22;7640;53.116;6.878;2022-07-29T01:57:27;16.80;99.90
15083;DHT22;7640;53.116;6.878;2022-07-29T02:00:00;16.80;99.90
15083;DHT22;7640;53.116;6.878;2022-07-29T02:02:32;16.80;99.90
15083;DHT22;7640;53.116;6.878;2022-07-29T02:05:02;16.80;99.90
15083;DHT22;7640;53.116;6.878;2022-07-29T02:07:32;16.80;99.90
15083;DHT22;7640;53.116;6.878;2022-07-29T02:10:02;16.80;99.90
15083;DHT22;7640;53.116;6.878;2022-07-29T02:12:32;16.80;99.90
15083;DHT22;7640;53.116;6.878;2022-07-29T02:15:06;16.80;99.90
15083;DHT22;7640;53.116;6.878;2022-07-29T02:17:41;16.80;99.90
15083;DHT22;7640;53.116;6.878;2022-07-29T02:20:11;16.80;99.90
15083;DHT22;7640;53.116;6.878;2022-07-29T02:22:41;16.80;99.90
15083;DHT22;7640;53.116;6.878;2022-07-29T02:25:12;16.70;99.90
15083;DHT22;7640;53.116;6.878;2022-07-29T02:27:43;16.80;99.90
15083;DHT22;7640;53.116;6.878;2022-07-29T02:30:13;16.80;99.90
15083;DHT22;7640;53.116;6.878;2022-07-29T02:32:43;16.80;99.90
15083;DHT22;7640;53.116;6.878;2022-07-29T02:35:13;16.80;99.90
15083;DHT22;7640;53.116;6.878;2022-07-29T02:37:44;16.80;99.90
15083;DHT22;7640;53.116;6.878;2022-07-29T02:40:34;16.80;99.90
15083;DHT22;7640;53.116;6.878;2022-07-29T02:43:06;16.30;99.90
15083;DHT22;7640;53.116;6.878;2022-07-29T02:45:37;16.80;99.90
15083;DHT22;7640;53.116;6.878;2022-07-29T02:48:10;16.80;99.90
15083;DHT22;7640;53.116;6.878;2022-07-29T02:50:44;16.80;99.90
15083;DHT22;7640;53.116;6.878;2022-07-29T02:53:18;16.80;99.90
15083;DHT22;7640;53.116;6.878;2022-07-29T02:55:51;16.80;99.90
15083;DHT22;7640;53.116;6.878;2022-07-29T02:58:27;16.80;99.90
15083;DHT22;7640;53.116;6.878;2022-07-29T03:01:02;16.70;99.90
15083;DHT22;7640;53.116;6.878;2022-07-29T03:03:34;16.70;99.90
15083;DHT22;7640;53.116;6.878;2022-07-29T03:06:05;16.70;99.90
15083;DHT22;7640;53.116;6.878;2022-07-29T03:08:54;16.70;99.90
15083;DHT22;7640;53.116;6.878;2022-07-29T03:11:23;16.60;99.90
15083;DHT22;7640;53.116;6.878;2022-07-29T03:14:12;16.70;99.90
15083;DHT22;7640;53.116;6.878;2022-07-29T03:16:43;16.70;99.90
15083;DHT22;7640;53.116;6.878;2022-07-29T03:19:11;16.10;99.90
15083;DHT22;7640;53.116;6.878;2022-07-29T03:21:39;16.60;99.90
15083;DHT22;7640;53.116;6.878;2022-07-29T03:24:08;16.60;99.90
15083;DHT22;7640;53.116;6.878;2022-07-29T03:26:36;16.60;99.90
15083;DHT22;7640;53.116;6.878;2022-07-29T03:29:05;16.60;99.90
15083;DHT22;7640;53.116;6.878;2022-07-29T03:31:39;16.60;99.90
15083;DHT22;7640;53.116;6.878;2022-07-29T03:34:10;16.60;99.90
15083;DHT22;7640;53.116;6.878;2022-07-29T03:36:39;16.60;99.90
15083;DHT22;7640;53.116;6.878;2022-07-29T03:39:09;16.60;99.90
15083;DHT22;7640;53.116;6.878;2022-07-29T03:41:38;16.60;99.90
15083;DHT22;7640;53.116;6.878;2022-07-29T03:44:09;16.60;99.90
15083;DHT22;7640;53.116;6.878;2022-07-29T03:46:39;16.60;99.90
15083;DHT22;7640;53.116;6.878;2022-07-29T03:49:09;16.60;99.90
15083;DHT22;7640;53.116;6.878;2022-07-29T03:51:42;16.60;99.90
15083;DHT22;7640;53.116;6.878;2022-07-29T03:54:11;16.60;99.90
15083;DHT22;7640;53.116;6.878;2022-07-29T03:56:42;16.60;99.90
15083;DHT22;7640;53.116;6.878;2022-07-29T03:59:15;16.60;99.90
15083;DHT22;7640;53.116;6.878;2022-07-29T04:01:44;16.60;99.90
15083;DHT22;7640;53.116;6.878;2022-07-29T04:04:15;16.60;99.90
15083;DHT22;7640;53.116;6.878;2022-07-29T04:06:46;16.60;99.90
15083;DHT22;7640;53.116;6.878;2022-07-29T04:09:16;16.60;99.90
15083;DHT22;7640;53.116;6.878;2022-07-29T04:11:45;16.60;99.90
15083;DHT22;7640;53.116;6.878;2022-07-29T04:14:29;16.60;99.90
15083;DHT22;7640;53.116;6.878;2022-07-29T04:16:59;16.60;99.90
15083;DHT22;7640;53.116;6.878;2022-07-29T04:19:29;16.60;99.90
15083;DHT22;7640;53.116;6.878;2022-07-29T04:21:58;16.60;99.90
15083;DHT22;7640;53.116;6.878;2022-07-29T04:24:27;16.60;99.90
15083;DHT22;7640;53.116;6.878;2022-07-29T04:26:56;16.60;99.90
15083;DHT22;7640;53.116;6.878;2022-07-29T04:29:24;16.60;99.90
15083;DHT22;7640;53.116;6.878;2022-07-29T04:31:52;16.60;99.90
15083;DHT22;7640;53.116;6.878;2022-07-29T04:34:20;16.60;99.90
15083;DHT22;7640;53.116;6.878;2022-07-29T04:36:55;16.60;99.90
15083;DHT22;7640;53.116;6.878;2022-07-29T04:39:23;16.60;99.90
15083;DHT22;7640;53.116;6.878;2022-07-29T04:41:55;16.70;99.90
15083;DHT22;7640;53.116;6.878;2022-07-29T04:44:24;16.70;99.90
15083;DHT22;7640;53.116;6.878;2022-07-29T04:46:56;16.70;99.90
15083;DHT22;7640;53.116;6.878;2022-07-29T04:49:24;16.70;99.90
15083;DHT22;7640;53.116;6.878;2022-07-29T04:51:54;16.70;99.90
15083;DHT22;7640;53.116;6.878;2022-07-29T04:54:23;16.80;99.90
15083;DHT22;7640;53.116;6.878;2022-07-29T04:56:52;16.80;99.90
15083;DHT22;7640;53.116;6.878;2022-07-29T04:59:20;16.70;99.90
15083;DHT22;7640;53.116;6.878;2022-07-29T05:01:51;16.70;99.90
15083;DHT22;7640;53.116;6.878;2022-07-29T05:04:19;16.70;99.90
15083;DHT22;7640;53.116;6.878;2022-07-29T05:06:48;16.80;99.90
15083;DHT22;7640;53.116;6.878;2022-07-29T05:09:17;16.80;99.90
15083;DHT22;7640;53.116;6.878;2022-07-29T05:11:46;16.80;99.90
15083;DHT22;7640;53.116;6.878;2022-07-29T05:14:14;16.80;99.90
15083;DHT22;7640;53.116;6.878;2022-07-29T05:16:43;16.80;99.90
15083;DHT22;7640;53.116;6.878;2022-07-29T05:19:11;16.90;99.90
15083;DHT22;7640;53.116;6.878;2022-07-29T05:21:41;16.90;99.90
15083;DHT22;7640;53.116;6.878;2022-07-29T05:24:09;17.00;99.90
15083;DHT22;7640;53.116;6.878;2022-07-29T05:26:40;17.00;99.90
15083;DHT22;7640;53.116;6.878;2022-07-29T05:29:08;17.10;99.90
15083;DHT22;7640;53.116;6.878;2022-07-29T05:31:57;17.10;99.90
15083;DHT22;7640;53.116;6.878;2022-07-29T05:34:26;17.20;99.90
15083;DHT22;7640;53.116;6.878;2022-07-29T05:36:54;17.20;99.90
15083;DHT22;7640;53.116;6.878;2022-07-29T05:39:22;17.30;99.90
15083;DHT22;7640;53.116;6.878;2022-07-29T05:42:12;17.30;99.90
15083;DHT22;7640;53.116;6.878;2022-07-29T05:44:40;17.40;99.90
15083;DHT22;7640;53.116;6.878;2022-07-29T05:47:08;17.40;99.90
15083;DHT22;7640;53.116;6.878;2022-07-29T05:49:36;17.50;99.90
15083;DHT22;7640;53.116;6.878;2022-07-29T05:52:05;17.50;99.90
15083;DHT22;7640;53.116;6.878;2022-07-29T05:54:33;17.60;99.90
15083;DHT22;7640;53.116;6.878;2022-07-29T05:57:03;17.60;99.90
15083;DHT22;7640;53.116;6.878;2022-07-29T05:59:35;17.70;99.90
15083;DHT22;7640;53.116;6.878;2022-07-29T06:02:03;17.70;99.90
15083;DHT22;7640;53.116;6.878;2022-07-29T06:04:33;17.80;99.90
15083;DHT22;7640;53.116;6.878;2022-07-29T06:07:01;17.80;99.90
15083;DHT22;7640;53.116;6.878;2022-07-29T06:09:29;17.90;99.90
15083;DHT22;7640;53.116;6.878;2022-07-29T06:12:02;17.90;99.90
15083;DHT22;7640;53.116;6.878;2022-07-29T06:17:02;17.90;99.90
15083;DHT22;7640;53.116;6.878;2022-07-29T06:19:30;18.00;99.90
15083;DHT22;7640;53.116;6.878;2022-07-29T06:21:59;18.10;99.90
15083;DHT22;7640;53.116;6.878;2022-07-29T06:24:27;18.10;99.90
15083;DHT22;7640;53.116;6.878;2022-07-29T06:26:55;18.20;99.90
15083;DHT22;7640;53.116;6.878;2022-07-29T06:29:26;18.20;99.90
15083;DHT22;7640;53.116;6.878;2022-07-29T06:31:56;18.30;99.90
15083;DHT22;7640;53.116;6.878;2022-07-29T06:34:24;18.30;99.90
15083;DHT22;7640;53.116;6.878;2022-07-29T06:36:52;18.30;99.90
15083;DHT22;7640;53.116;6.878;2022-07-29T06:39:21;18.40;99.90
15083;DHT22;7640;53.116;6.878;2022-07-29T06:41:50;18.40;99.90
15083;DHT22;7640;53.116;6.878;2022-07-29T06:44:18;18.40;99.90
15083;DHT22;7640;53.116;6.878;2022-07-29T06:46:46;18.50;99.90
15083;DHT22;7640;53.116;6.878;2022-07-29T06:49:18;18.60;99.90
15083;DHT22;7640;53.116;6.878;2022-07-29T06:51:46;18.70;99.90
15083;DHT22;7640;53.116;6.878;2022-07-29T06:54:14;18.70;99.90
15083;DHT22;7640;53.116;6.878;2022-07-29T06:56:43;18.80;99.90
15083;DHT22;7640;53.116;6.878;2022-07-29T06:59:12;18.80;99.90
15083;DHT22;7640;53.116;6.878;2022-07-29T07:01:42;18.80;99.90
15083;DHT22;7640;53.116;6.878;2022-07-29T07:04:11;19.00;99.90
15083;DHT22;7640;53.116;6.878;2022-07-29T07:06:42;19.00;99.90
15083;DHT22;7640;53.116;6.878;2022-07-29T07:09:10;19.10;99.90
15083;DHT22;7640;53.116;6.878;2022-07-29T07:11:38;19.10;99.90
15083;DHT22;7640;53.116;6.878;2022-07-29T07:14:06;19.20;99.90
15083;DHT22;7640;53.116;6.878;2022-07-29T07:16:35;19.30;99.90
15083;DHT22;7640;53.116;6.878;2022-07-29T07:19:03;19.40;99.90
15083;DHT22;7640;53.116;6.878;2022-07-29T07:21:32;19.50;99.90
15083;DHT22;7640;53.116;6.878;2022-07-29T07:24:03;19.60;99.90
15083;DHT22;7640;53.116;6.878;2022-07-29T07:26:32;19.60;99.90
15083;DHT22;7640;53.116;6.878;2022-07-29T07:29:00;19.70;99.90
15083;DHT22;7640;53.116;6.878;2022-07-29T07:31:28;19.80;99.90
15083;DHT22;7640;53.116;6.878;2022-07-29T07:33:57;19.90;99.90
15083;DHT22;7640;53.116;6.878;2022-07-29T07:36:28;20.00;99.90
15083;DHT22;7640;53.116;6.878;2022-07-29T07:38:56;20.00;99.90
15083;DHT22;7640;53.116;6.878;2022-07-29T07:41:25;20.00;99.90
15083;DHT22;7640;53.116;6.878;2022-07-29T07:43:58;20.10;99.90
15083;DHT22;7640;53.116;6.878;2022-07-29T07:46:26;20.10;99.90
15083;DHT22;7640;53.116;6.878;2022-07-29T07:48:55;20.20;99.90
15083;DHT22;7640;53.116;6.878;2022-07-29T07:51:23;20.20;99.90
15083;DHT22;7640;53.116;6.878;2022-07-29T07:53:53;20.20;99.90
15083;DHT22;7640;53.116;6.878;2022-07-29T07:56:23;20.30;99.90
15083;DHT22;7640;53.116;6.878;2022-07-29T07:58:52;20.30;99.90
15083;DHT22;7640;53.116;6.878;2022-07-29T08:01:21;20.30;99.90
15083;DHT22;7640;53.116;6.878;2022-07-29T08:03:49;20.40;99.90
15083;DHT22;7640;53.116;6.878;2022-07-29T08:06:18;20.50;99.90
15083;DHT22;7640;53.116;6.878;2022-07-29T08:08:46;20.40;99.90
15083;DHT22;7640;53.116;6.878;2022-07-29T08:11:14;20.60;99.90
15083;DHT22;7640;53.116;6.878;2022-07-29T08:13:42;20.60;99.90
15083;DHT22;7640;53.116;6.878;2022-07-29T08:16:12;20.70;99.90
15083;DHT22;7640;53.116;6.878;2022-07-29T08:18:43;20.70;99.90
15083;DHT22;7640;53.116;6.878;2022-07-29T08:21:13;20.80;99.90
15083;DHT22;7640;53.116;6.878;2022-07-29T08:23:43;20.80;99.90
15083;DHT22;7640;53.116;6.878;2022-07-29T08:26:24;20.90;99.90
15083;DHT22;7640;53.116;6.878;2022-07-29T08:28:52;21.00;99.90
15083;DHT22;7640;53.116;6.878;2022-07-29T08:31:22;21.10;99.90
15083;DHT22;7640;53.116;6.878;2022-07-29T08:33:50;21.20;99.90
15083;DHT22;7640;53.116;6.878;2022-07-29T08:36:18;21.30;99.90
15083;DHT22;7640;53.116;6.878;2022-07-29T08:38:48;21.40;99.90
15083;DHT22;7640;53.116;6.878;2022-07-29T08:41:16;21.50;99.90
15083;DHT22;7640;53.116;6.878;2022-07-29T08:43:46;21.60;99.90
15083;DHT22;7640;53.116;6.878;2022-07-29T08:46:14;21.70;99.90
15083;DHT22;7640;53.116;6.878;2022-07-29T08:48:45;21.80;99.90
15083;DHT22;7640;53.116;6.878;2022-07-29T08:51:15;21.90;99.90
15083;DHT22;7640;53.116;6.878;2022-07-29T08:53:46;21.90;99.90
15083;DHT22;7640;53.116;6.878;2022-07-29T08:56:17;22.00;99.90
15083;DHT22;7640;53.116;6.878;2022-07-29T08:58:47;22.00;99.90
15083;DHT22;7640;53.116;6.878;2022-07-29T09:01:22;22.10;99.90
15083;DHT22;7640;53.116;6.878;2022-07-29T09:04:10;22.30;99.90
15083;DHT22;7640;53.116;6.878;2022-07-29T09:06:43;22.30;99.90
15083;DHT22;7640;53.116;6.878;2022-07-29T09:09:13;22.40;99.90
15083;DHT22;7640;53.116;6.878;2022-07-29T09:11:43;22.50;99.90
15083;DHT22;7640;53.116;6.878;2022-07-29T09:14:12;22.60;99.90
15083;DHT22;7640;53.116;6.878;2022-07-29T09:16:51;22.60;99.90
15083;DHT22;7640;53.116;6.878;2022-07-29T09:19:24;22.60;99.90
15083;DHT22;7640;53.116;6.878;2022-07-29T09:21:56;22.60;99.90
15083;DHT22;7640;53.116;6.878;2022-07-29T09:24:35;22.50;99.90
15083;DHT22;7640;53.116;6.878;2022-07-29T09:27:27;22.50;99.90
15083;DHT22;7640;53.116;6.878;2022-07-29T09:29:57;22.40;99.90
15083;DHT22;7640;53.116;6.878;2022-07-29T09:32:26;22.40;99.90
15083;DHT22;7640;53.116;6.878;2022-07-29T09:35:17;22.40;99.90
15083;DHT22;7640;53.116;6.878;2022-07-29T09:37:46;22.40;99.90
15083;DHT22;7640;53.116;6.878;2022-07-29T09:40:17;22.30;99.90
15083;DHT22;7640;53.116;6.878;2022-07-29T09:42:46;22.40;99.90
15083;DHT22;7640;53.116;6.878;2022-07-29T09:45:27;22.40;99.90
15083;DHT22;7640;53.116;6.878;2022-07-29T09:47:57;22.50;99.90
15083;DHT22;7640;53.116;6.878;2022-07-29T09:50:38;22.50;99.90
15083;DHT22;7640;53.116;6.878;2022-07-29T09:53:07;22.50;99.90
15083;DHT22;7640;53.116;6.878;2022-07-29T09:55:47;22.60;99.90
15083;DHT22;7640;53.116;6.878;2022-07-29T09:58:18;22.60;99.90
15083;DHT22;7640;53.116;6.878;2022-07-29T10:00:51;22.70;99.90
15083;DHT22;7640;53.116;6.878;2022-07-29T10:03:22;22.80;99.90
15083;DHT22;7640;53.116;6.878;2022-07-29T10:06:06;22.90;99.90
15083;DHT22;7640;53.116;6.878;2022-07-29T10:08:37;23.00;99.90
15083;DHT22;7640;53.116;6.878;2022-07-29T10:11:10;23.20;99.90
15083;DHT22;7640;53.116;6.878;2022-07-29T10:13:41;23.30;99.90
15083;DHT22;7640;53.116;6.878;2022-07-29T10:16:11;23.30;99.90
15083;DHT22;7640;53.116;6.878;2022-07-29T10:18:41;23.40;99.90
15083;DHT22;7640;53.116;6.878;2022-07-29T10:21:12;23.60;99.90
15083;DHT22;7640;53.116;6.878;2022-07-29T10:24:01;23.70;99.90
15083;DHT22;7640;53.116;6.878;2022-07-29T10:26:29;23.80;99.90
15083;DHT22;7640;53.116;6.878;2022-07-29T10:28:58;23.90;99.90
15083;DHT22;7640;53.116;6.878;2022-07-29T10:31:31;23.90;99.90
15083;DHT22;7640;53.116;6.878;2022-07-29T10:34:13;24.00;99.90
15083;DHT22;7640;53.116;6.878;2022-07-29T10:36:54;24.10;99.90
15083;DHT22;7640;53.116;6.878;2022-07-29T10:39:40;24.30;99.90
15083;DHT22;7640;53.116;6.878;2022-07-29T10:42:18;24.40;99.90
15083;DHT22;7640;53.116;6.878;2022-07-29T10:45:02;24.50;99.90
15083;DHT22;7640;53.116;6.878;2022-07-29T10:47:32;24.60;99.90
15083;DHT22;7640;53.116;6.878;2022-07-29T10:50:02;24.70;99.90
15083;DHT22;7640;53.116;6.878;2022-07-29T10:52:54;24.80;99.90
15083;DHT22;7640;53.116;6.878;2022-07-29T10:55:31;25.00;99.90
15083;DHT22;7640;53.116;6.878;2022-07-29T10:58:13;25.20;99.90
15083;DHT22;7640;53.116;6.878;2022-07-29T11:00:44;25.20;99.90
15083;DHT22;7640;53.116;6.878;2022-07-29T11:03:43;25.30;99.90
15083;DHT22;7640;53.116;6.878;2022-07-29T11:06:19;25.50;99.90
15083;DHT22;7640;53.116;6.878;2022-07-29T11:09:16;25.50;99.90
15083;DHT22;7640;53.116;6.878;2022-07-29T11:11:51;25.60;99.90
15083;DHT22;7640;53.116;6.878;2022-07-29T11:14:54;25.70;99.90
15083;DHT22;7640;53.116;6.878;2022-07-29T11:17:23;25.90;99.90
15083;DHT22;7640;53.116;6.878;2022-07-29T11:20:32;26.00;99.90
15083;DHT22;7640;53.116;6.878;2022-07-29T11:23:21;26.10;99.90
15083;DHT22;7640;53.116;6.878;2022-07-29T11:26:22;26.10;99.90
15083;DHT22;7640;53.116;6.878;2022-07-29T11:28:59;26.20;99.90
15083;DHT22;7640;53.116;6.878;2022-07-29T11:31:35;26.20;99.90
15083;DHT22;7640;53.116;6.878;2022-07-29T11:34:17;26.40;99.90
15083;DHT22;7640;53.116;6.878;2022-07-29T11:37:20;26.50;99.90
15083;DHT22;7640;53.116;6.878;2022-07-29T11:40:19;26.50;99.90
15083;DHT22;7640;53.116;6.878;2022-07-29T11:42:52;26.60;99.90
15083;DHT22;7640;53.116;6.878;2022-07-29T11:45:23;26.70;99.90
15083;DHT22;7640;53.116;6.878;2022-07-29T11:48:16;26.70;99.90
15083;DHT22;7640;53.116;6.878;2022-07-29T11:50:56;26.80;99.90
15083;DHT22;7640;53.116;6.878;2022-07-29T11:53:25;26.70;99.90
15083;DHT22;7640;53.116;6.878;2022-07-29T11:55:59;26.60;99.90
15083;DHT22;7640;53.116;6.878;2022-07-29T11:58:30;26.60;99.90
15083;DHT22;7640;53.116;6.878;2022-07-29T12:01:04;26.50;99.90
15083;DHT22;7640;53.116;6.878;2022-07-29T12:03:32;26.50;99.90
15083;DHT22;7640;53.116;6.878;2022-07-29T12:06:21;26.50;99.90
15083;DHT22;7640;53.116;6.878;2022-07-29T12:08:49;26.60;99.90
15083;DHT22;7640;53.116;6.878;2022-07-29T12:11:20;26.70;99.90
15083;DHT22;7640;53.116;6.878;2022-07-29T12:13:51;26.90;99.90
15083;DHT22;7640;53.116;6.878;2022-07-29T12:16:19;27.10;99.90
15083;DHT22;7640;53.116;6.878;2022-07-29T12:18:56;27.20;99.60
15083;DHT22;7640;53.116;6.878;2022-07-29T12:21:25;27.20;99.70
15083;DHT22;7640;53.116;6.878;2022-07-29T12:23:56;27.30;99.70
15083;DHT22;7640;53.116;6.878;2022-07-29T12:26:35;27.40;99.50
15083;DHT22;7640;53.116;6.878;2022-07-29T12:29:15;27.40;99.40
15083;DHT22;7640;53.116;6.878;2022-07-29T12:32:00;27.50;99.40
15083;DHT22;7640;53.116;6.878;2022-07-29T12:34:29;27.50;99.20
15083;DHT22;7640;53.116;6.878;2022-07-29T12:36:57;27.40;99.20
15083;DHT22;7640;53.116;6.878;2022-07-29T12:39:26;27.60;99.50
15083;DHT22;7640;53.116;6.878;2022-07-29T12:41:54;27.60;99.40
15083;DHT22;7640;53.116;6.878;2022-07-29T12:44:45;27.60;98.70
15083;DHT22;7640;53.116;6.878;2022-07-29T12:47:15;27.50;98.80
15083;DHT22;7640;53.116;6.878;2022-07-29T12:49:44;27.50;99.10
15083;DHT22;7640;53.116;6.878;2022-07-29T12:52:30;27.50;99.20
15083;DHT22;7640;53.116;6.878;2022-07-29T12:54:59;27.60;99.20
15083;DHT22;7640;53.116;6.878;2022-07-29T12:57:28;27.60;99.10
15083;DHT22;7640;53.116;6.878;2022-07-29T13:00:08;27.50;99.00
15083;DHT22;7640;53.116;6.878;2022-07-29T13:02:40;27.60;99.10
15083;DHT22;7640;53.116;6.878;2022-07-29T13:05:10;27.40;98.90
15083;DHT22;7640;53.116;6.878;2022-07-29T13:07:39;27.40;98.60
15083;DHT22;7640;53.116;6.878;2022-07-29T13:10:23;27.40;98.60
15083;DHT22;7640;53.116;6.878;2022-07-29T13:13:03;27.30;98.80
15083;DHT22;7640;53.116;6.878;2022-07-29T13:15:34;27.30;98.60
15083;DHT22;7640;53.116;6.878;2022-07-29T13:18:02;27.20;98.40
15083;DHT22;7640;53.116;6.878;2022-07-29T13:20:54;27.10;98.60
15083;DHT22;7640;53.116;6.878;2022-07-29T13:23:22;27.10;98.60
15083;DHT22;7640;53.116;6.878;2022-07-29T13:25:50;27.10;98.80
15083;DHT22;7640;53.116;6.878;2022-07-29T13:28:20;27.00;99.00
15083;DHT22;7640;53.116;6.878;2022-07-29T13:30:50;27.00;99.00
15083;DHT22;7640;53.116;6.878;2022-07-29T13:33:18;26.90;99.00
15083;DHT22;7640;53.116;6.878;2022-07-29T13:35:47;26.80;98.90
15083;DHT22;7640;53.116;6.878;2022-07-29T13:38:15;26.80;99.10
15083;DHT22;7640;53.116;6.878;2022-07-29T13:40:44;26.80;99.40
15083;DHT22;7640;53.116;6.878;2022-07-29T13:43:12;26.90;99.40
15083;DHT22;7640;53.116;6.878;2022-07-29T13:45:40;26.90;99.40
15083;DHT22;7640;53.116;6.878;2022-07-29T13:48:10;26.90;99.30
15083;DHT22;7640;53.116;6.878;2022-07-29T13:50:40;27.10;99.30
15083;DHT22;7640;53.116;6.878;2022-07-29T13:53:10;27.10;99.50
15083;DHT22;7640;53.116;6.878;2022-07-29T13:55:43;27.30;99.50
15083;DHT22;7640;53.116;6.878;2022-07-29T13:58:12;27.50;99.40
15083;DHT22;7640;53.116;6.878;2022-07-29T14:00:41;27.70;99.30
15083;DHT22;7640;53.116;6.878;2022-07-29T14:03:10;27.90;99.30
15083;DHT22;7640;53.116;6.878;2022-07-29T14:05:38;28.20;99.30
15083;DHT22;7640;53.116;6.878;2022-07-29T14:08:07;28.40;98.60
15083;DHT22;7640;53.116;6.878;2022-07-29T14:10:36;28.60;98.10
15083;DHT22;7640;53.116;6.878;2022-07-29T14:13:04;28.70;97.60
15083;DHT22;7640;53.116;6.878;2022-07-29T14:15:51;28.80;97.10
15083;DHT22;7640;53.116;6.878;2022-07-29T14:18:20;28.80;97.00
15083;DHT22;7640;53.116;6.878;2022-07-29T14:20:49;28.90;96.70
15083;DHT22;7640;53.116;6.878;2022-07-29T14:23:17;28.90;96.30
15083;DHT22;7640;53.116;6.878;2022-07-29T14:25:46;28.90;96.20
15083;DHT22;7640;53.116;6.878;2022-07-29T14:28:15;29.00;95.90
15083;DHT22;7640;53.116;6.878;2022-07-29T14:30:43;29.20;95.40
15083;DHT22;7640;53.116;6.878;2022-07-29T14:33:11;29.30;94.90
15083;DHT22;7640;53.116;6.878;2022-07-29T14:35:41;29.50;95.10
15083;DHT22;7640;53.116;6.878;2022-07-29T14:38:10;30.10;95.80
15083;DHT22;7640;53.116;6.878;2022-07-29T14:40:38;31.30;95.20
15083;DHT22;7640;53.116;6.878;2022-07-29T14:43:06;32.40;93.30
15083;DHT22;7640;53.116;6.878;2022-07-29T14:45:34;33.20;91.70
15083;DHT22;7640;53.116;6.878;2022-07-29T14:48:03;33.70;90.20
15083;DHT22;7640;53.116;6.878;2022-07-29T14:50:31;33.90;88.60
15083;DHT22;7640;53.116;6.878;2022-07-29T14:53:01;34.00;86.60
15083;DHT22;7640;53.116;6.878;2022-07-29T14:55:29;33.90;85.10
15083;DHT22;7640;53.116;6.878;2022-07-29T14:57:57;33.70;84.30
15083;DHT22;7640;53.116;6.878;2022-07-29T15:00:36;33.60;83.20
15083;DHT22;7640;53.116;6.878;2022-07-29T15:03:04;33.30;83.30
15083;DHT22;7640;53.116;6.878;2022-07-29T15:05:40;33.20;83.70
15083;DHT22;7640;53.116;6.878;2022-07-29T15:08:09;33.10;83.90
15083;DHT22;7640;53.116;6.878;2022-07-29T15:10:37;33.20;84.00
15083;DHT22;7640;53.116;6.878;2022-07-29T15:13:06;33.40;82.90
15083;DHT22;7640;53.116;6.878;2022-07-29T15:15:34;33.80;83.50
15083;DHT22;7640;53.116;6.878;2022-07-29T15:18:05;34.60;83.80
15083;DHT22;7640;53.116;6.878;2022-07-29T15:20:35;35.30;81.50
15083;DHT22;7640;53.116;6.878;2022-07-29T15:23:04;35.80;79.90
15083;DHT22;7640;53.116;6.878;2022-07-29T15:25:37;36.20;79.10
15083;DHT22;7640;53.116;6.878;2022-07-29T15:28:08;36.60;77.00
15083;DHT22;7640;53.116;6.878;2022-07-29T15:30:36;37.00;75.50
15083;DHT22;7640;53.116;6.878;2022-07-29T15:33:08;37.30;74.50
15083;DHT22;7640;53.116;6.878;2022-07-29T15:35:37;37.80;73.60
15083;DHT22;7640;53.116;6.878;2022-07-29T15:38:06;38.10;71.60
15083;DHT22;7640;53.116;6.878;2022-07-29T15:40:38;37.90;70.60
15083;DHT22;7640;53.116;6.878;2022-07-29T15:43:07;37.80;69.70
15083;DHT22;7640;53.116;6.878;2022-07-29T15:45:36;37.80;70.80
15083;DHT22;7640;53.116;6.878;2022-07-29T15:48:07;38.00;70.10
15083;DHT22;7640;53.116;6.878;2022-07-29T15:50:40;38.40;69.90
15083;DHT22;7640;53.116;6.878;2022-07-29T15:53:12;38.70;69.40
15083;DHT22;7640;53.116;6.878;2022-07-29T15:55:42;39.20;68.40
15083;DHT22;7640;53.116;6.878;2022-07-29T15:58:10;39.60;67.30
15083;DHT22;7640;53.116;6.878;2022-07-29T16:00:42;39.90;65.90
15083;DHT22;7640;53.116;6.878;2022-07-29T16:03:11;40.20;64.70
15083;DHT22;7640;53.116;6.878;2022-07-29T16:05:42;40.50;63.90
15083;DHT22;7640;53.116;6.878;2022-07-29T16:08:10;40.70;62.60
15083;DHT22;7640;53.116;6.878;2022-07-29T16:10:42;41.10;62.60
15083;DHT22;7640;53.116;6.878;2022-07-29T16:13:10;41.40;62.40
15083;DHT22;7640;53.116;6.878;2022-07-29T16:15:44;41.80;61.20
15083;DHT22;7640;53.116;6.878;2022-07-29T16:18:28;42.20;60.50
15083;DHT22;7640;53.116;6.878;2022-07-29T16:20:57;42.50;59.60